createdAt,value
2022-10-28T00:03:43.202Z,3.20
2022-10-28T00:06:13.136Z,2.78
2022-10-28T00:08:40.468Z,2.83
2022-10-28T00:11:10.581Z,3.22
2022-10-28T00:13:37.504Z,3.33
2022-10-28T00:16:10.733Z,3.50
2022-10-28T00:18:38.144Z,2.78
2022-10-28T00:21:12.252Z,4.05
2022-10-28T00:23:39.341Z,3.17
2022-10-28T00:26:08.740Z,3.30
2022-10-28T00:28:35.888Z,3.50
2022-10-28T00:31:09.951Z,3.53
2022-10-28T00:33:36.827Z,4.60
2022-10-28T00:36:12.762Z,4.20
2022-10-28T00:38:40.221Z,3.63
2022-10-28T00:41:07.448Z,3.58
2022-10-28T00:43:49.112Z,4.10
2022-10-28T00:46:23.482Z,3.60
2022-10-28T00:48:57.462Z,3.70
2022-10-28T00:51:26.510Z,3.80
2022-10-28T00:53:55.408Z,3.45
2022-10-28T00:58:56.737Z,3.80
2022-10-28T01:01:23.862Z,3.50
2022-10-28T01:03:51.512Z,3.55
2022-10-28T01:06:18.315Z,4.40
2022-10-28T01:08:44.743Z,4.28
2022-10-28T01:11:41.624Z,3.38
2022-10-28T01:14:11.044Z,4.03
2022-10-28T01:16:49.702Z,4.32
2022-10-28T01:19:43.127Z,3.97
2022-10-28T01:22:25.233Z,5.15
2022-10-28T01:25:21.621Z,3.47
2022-10-28T01:28:09.914Z,4.05
2022-10-28T01:31:02.627Z,3.53
2022-10-28T01:33:34.211Z,3.60
2022-10-28T01:36:38.330Z,3.30
2022-10-28T01:39:20.930Z,3.55
2022-10-28T01:42:06.172Z,3.65
2022-10-28T01:44:55.525Z,3.15
2022-10-28T01:47:37.612Z,3.78
2022-10-28T01:50:09.220Z,3.15
2022-10-28T01:52:40.012Z,3.40
2022-10-28T01:55:14.692Z,2.92
2022-10-28T02:00:09.410Z,3.08
2022-10-28T02:02:38.182Z,3.67
2022-10-28T02:05:24.434Z,3.28
2022-10-28T02:07:54.469Z,3.55
2022-10-28T02:10:24.875Z,3.33
2022-10-28T02:12:56.336Z,3.45
2022-10-28T02:15:37.932Z,3.67
2022-10-28T02:18:23.358Z,3.15
2022-10-28T02:20:59.733Z,2.92
2022-10-28T02:23:46.386Z,3.55
2022-10-28T02:26:28.233Z,3.17
2022-10-28T02:29:05.431Z,2.97
2022-10-28T02:31:44.970Z,3.67
2022-10-28T02:34:28.686Z,2.85
2022-10-28T02:36:59.575Z,3.30
2022-10-28T02:39:32.338Z,3.25
2022-10-28T02:42:06.834Z,3.38
2022-10-28T02:44:38.697Z,3.03
2022-10-28T02:47:12.282Z,3.58
2022-10-28T02:49:41.781Z,3.60
2022-10-28T02:52:08.872Z,3.72
2022-10-28T02:54:44.927Z,3.40
2022-10-28T02:57:21.372Z,4.03
2022-10-28T02:59:56.602Z,3.65
2022-10-28T03:02:25.919Z,3.78
2022-10-28T03:04:52.401Z,3.47
2022-10-28T03:07:19.505Z,3.55
2022-10-28T03:09:45.916Z,3.97
2022-10-28T03:12:12.366Z,3.80
2022-10-28T03:14:38.839Z,3.80
2022-10-28T03:17:05.295Z,3.58
2022-10-28T03:19:35.105Z,4.45
2022-10-28T03:22:01.556Z,3.15
2022-10-28T03:24:28.019Z,3.17
2022-10-28T03:26:54.486Z,4.07
2022-10-28T03:29:21.169Z,4.22
2022-10-28T03:31:47.563Z,4.00
2022-10-28T03:34:14.030Z,3.90
2022-10-28T03:36:40.533Z,3.97
2022-10-28T03:39:07.043Z,3.67
2022-10-28T03:41:33.556Z,3.55
2022-10-28T03:44:00.074Z,3.45
2022-10-28T03:46:26.520Z,4.05
2022-10-28T03:48:53.050Z,3.55
2022-10-28T03:51:19.659Z,3.70
2022-10-28T03:53:46.119Z,3.35
2022-10-28T03:56:12.841Z,3.80
2022-10-28T03:58:41.281Z,4.18
2022-10-28T04:01:08.197Z,3.90
2022-10-28T04:03:34.759Z,3.30
2022-10-28T04:06:01.205Z,3.50
2022-10-28T04:08:27.631Z,3.40
2022-10-28T04:10:54.040Z,3.95
2022-10-28T04:13:20.468Z,3.45
2022-10-28T04:15:46.898Z,3.50
2022-10-28T04:18:13.401Z,3.85
2022-10-28T04:20:39.827Z,3.60
2022-10-28T04:23:07.745Z,3.08
2022-10-28T04:25:34.151Z,3.88
2022-10-28T04:28:00.587Z,3.40
2022-10-28T04:30:27.103Z,4.40
2022-10-28T04:32:53.584Z,3.63
2022-10-28T04:35:20.041Z,4.22
2022-10-28T04:37:46.518Z,4.55
2022-10-28T04:40:13.044Z,3.63
2022-10-28T04:42:39.453Z,4.35
2022-10-28T04:45:06.680Z,4.65
2022-10-28T04:47:33.112Z,4.45
2022-10-28T04:49:59.591Z,3.58
2022-10-28T04:52:26.004Z,4.05
2022-10-28T04:54:52.492Z,4.05
2022-10-28T04:57:18.953Z,4.63
2022-10-28T04:59:46.722Z,4.63
2022-10-28T05:02:13.217Z,4.43
2022-10-28T05:04:39.771Z,4.45
2022-10-28T05:07:06.977Z,4.20
2022-10-28T05:09:33.427Z,4.30
2022-10-28T05:11:59.996Z,3.92
2022-10-28T05:14:26.408Z,5.10
2022-10-28T05:16:52.872Z,5.07
2022-10-28T05:19:19.269Z,4.47
2022-10-28T05:21:45.657Z,4.50
2022-10-28T05:24:12.244Z,4.20
2022-10-28T05:26:38.665Z,4.20
2022-10-28T05:29:05.220Z,4.60
2022-10-28T05:31:31.641Z,4.55
2022-10-28T05:33:58.046Z,10.15
2022-10-28T05:36:24.571Z,5.07
2022-10-28T05:38:51.041Z,4.10
2022-10-28T05:41:17.458Z,3.95
2022-10-28T05:43:43.898Z,4.95
2022-10-28T05:46:10.504Z,4.63
2022-10-28T05:48:36.984Z,3.95
2022-10-28T05:51:03.469Z,4.47
2022-10-28T05:53:29.939Z,4.95
2022-10-28T05:55:56.354Z,4.82
2022-10-28T05:58:22.843Z,4.28
2022-10-28T06:00:49.262Z,3.85
2022-10-28T06:03:15.684Z,4.22
2022-10-28T06:05:44.441Z,3.63
2022-10-28T06:08:12.472Z,4.10
2022-10-28T06:10:39.795Z,4.38
2022-10-28T06:13:04.712Z,4.43
2022-10-28T06:15:31.140Z,4.50
2022-10-28T06:17:57.679Z,4.45
2022-10-28T06:20:24.493Z,4.45
2022-10-28T06:22:53.105Z,4.05
2022-10-28T06:25:21.206Z,4.93
2022-10-28T06:27:53.105Z,4.57
2022-10-28T06:30:20.731Z,6.20
2022-10-28T06:32:47.206Z,5.20
2022-10-28T06:35:14.070Z,5.07
2022-10-28T06:37:40.597Z,4.72
2022-10-28T06:40:07.707Z,5.18
2022-10-28T06:42:34.179Z,4.45
2022-10-28T06:45:00.615Z,4.47
2022-10-28T06:47:28.692Z,4.47
2022-10-28T06:49:55.158Z,4.40
2022-10-28T06:52:21.590Z,4.47
2022-10-28T06:54:47.980Z,4.18
2022-10-28T06:57:14.389Z,4.97
2022-10-28T06:59:42.028Z,4.72
2022-10-28T07:02:11.713Z,5.07
2022-10-28T07:04:38.579Z,5.15
2022-10-28T07:07:05.066Z,4.57
2022-10-28T07:09:31.532Z,5.40
2022-10-28T07:12:02.240Z,4.80
2022-10-28T07:14:32.049Z,4.80
2022-10-28T07:16:58.494Z,5.38
2022-10-28T07:19:24.950Z,5.57
2022-10-28T07:21:51.459Z,4.63
2022-10-28T07:24:17.935Z,5.70
2022-10-28T07:26:44.384Z,5.05
2022-10-28T07:29:10.816Z,4.90
2022-10-28T07:31:37.224Z,5.30
2022-10-28T07:34:03.776Z,4.72
2022-10-28T07:36:30.245Z,3.83
2022-10-28T07:38:56.674Z,3.78
2022-10-28T07:41:23.971Z,4.70
2022-10-28T07:43:50.602Z,4.20
2022-10-28T07:46:18.897Z,3.63
2022-10-28T07:51:13.640Z,4.57
2022-10-28T07:53:41.026Z,4.55
2022-10-28T07:56:10.347Z,4.35
2022-10-28T07:58:37.258Z,4.40
2022-10-28T08:01:08.814Z,4.03
2022-10-28T08:03:38.980Z,4.50
2022-10-28T08:06:10.247Z,4.43
2022-10-28T08:08:37.523Z,3.97
2022-10-28T08:11:10.954Z,3.85
2022-10-28T08:13:40.158Z,3.60
2022-10-28T08:16:08.105Z,3.75
2022-10-28T08:18:35.927Z,4.05
2022-10-28T08:21:04.140Z,3.55
2022-10-28T08:23:31.252Z,3.65
2022-10-28T08:25:57.974Z,3.60
2022-10-28T08:28:25.083Z,3.70
2022-10-28T08:31:04.230Z,3.47
2022-10-28T08:33:45.435Z,3.65
2022-10-28T08:36:14.556Z,3.60
2022-10-28T08:38:45.844Z,5.57
2022-10-28T08:41:30.285Z,3.35
2022-10-28T08:44:24.917Z,3.70
2022-10-28T08:46:57.649Z,3.15
2022-10-28T08:49:24.823Z,3.63
2022-10-28T08:51:58.367Z,3.25
2022-10-28T08:54:30.664Z,3.05
2022-10-28T08:57:00.918Z,3.60
2022-10-28T08:59:40.969Z,3.80
2022-10-28T09:02:25.267Z,3.47
2022-10-28T09:05:00.218Z,3.33
2022-10-28T09:07:26.777Z,3.28
2022-10-28T09:09:54.425Z,3.30
2022-10-28T09:12:38.973Z,3.47
2022-10-28T09:15:13.159Z,3.08
2022-10-28T09:18:01.069Z,3.13
2022-10-28T09:20:51.786Z,2.95
2022-10-28T09:23:27.161Z,3.10
2022-10-28T09:26:15.376Z,2.75
2022-10-28T09:28:59.413Z,2.95
2022-10-28T09:31:35.724Z,3.00
2022-10-28T09:34:19.510Z,3.05
2022-10-28T09:36:54.899Z,3.25
2022-10-28T09:39:43.275Z,3.03
2022-10-28T09:42:18.146Z,2.90
2022-10-28T09:44:54.794Z,3.28
2022-10-28T09:47:26.844Z,2.90
2022-10-28T09:49:58.999Z,3.20
2022-10-28T09:52:31.871Z,2.70
2022-10-28T09:55:02.718Z,2.72
2022-10-28T09:57:31.382Z,2.97
2022-10-28T09:59:59.604Z,2.78
2022-10-28T10:02:32.241Z,2.92
2022-10-28T10:05:01.296Z,2.85
2022-10-28T10:07:38.629Z,2.47
2022-10-28T10:10:16.732Z,2.58
2022-10-28T10:12:45.531Z,2.78
2022-10-28T10:15:28.234Z,2.70
2022-10-28T10:17:57.243Z,2.72
2022-10-28T10:20:23.724Z,2.60
2022-10-28T10:22:50.330Z,2.30
2022-10-28T10:25:19.826Z,2.42
2022-10-28T10:27:55.220Z,2.75
2022-10-28T10:30:25.803Z,2.50
2022-10-28T10:32:52.778Z,2.40
2022-10-28T10:35:26.709Z,2.55
2022-10-28T10:37:55.749Z,2.60
2022-10-28T10:40:33.531Z,2.42
2022-10-28T10:43:21.489Z,2.33
2022-10-28T10:45:58.624Z,2.30
2022-10-28T10:48:25.057Z,2.22
2022-10-28T10:50:52.785Z,2.40
2022-10-28T10:53:31.420Z,2.33
2022-10-28T10:56:01.249Z,2.22
2022-10-28T10:58:31.272Z,2.10
2022-10-28T11:01:01.272Z,2.25
2022-10-28T11:03:36.720Z,2.00
2022-10-28T11:06:24.209Z,2.00
2022-10-28T11:08:57.345Z,2.00
2022-10-28T11:11:34.110Z,2.22
2022-10-28T11:14:22.458Z,2.30
2022-10-28T11:16:57.038Z,1.83
2022-10-28T11:19:34.972Z,2.03
2022-10-28T11:22:19.439Z,2.17
2022-10-28T11:25:05.020Z,2.30
2022-10-28T11:27:56.331Z,2.25
2022-10-28T11:30:40.616Z,2.20
2022-10-28T11:33:36.824Z,2.05
2022-10-28T11:36:14.893Z,1.88
2022-10-28T11:39:34.348Z,1.90
2022-10-28T11:42:12.962Z,2.00
2022-10-28T11:44:43.677Z,2.05
2022-10-28T11:47:29.425Z,2.13
2022-10-28T11:50:30.045Z,1.52
2022-10-28T11:53:17.715Z,2.08
2022-10-28T11:56:16.505Z,2.30
2022-10-28T11:59:10.865Z,1.88
2022-10-28T12:02:00.391Z,1.70
2022-10-28T12:04:57.372Z,2.20
2022-10-28T12:07:48.324Z,2.00
2022-10-28T12:10:33.009Z,1.90
2022-10-28T12:13:45.049Z,2.00
2022-10-28T12:16:51.744Z,1.77
2022-10-28T12:19:29.958Z,1.83
2022-10-28T12:22:05.879Z,1.60
2022-10-28T12:24:35.487Z,2.00
2022-10-28T12:27:13.922Z,1.88
2022-10-28T12:29:48.685Z,1.90
2022-10-28T12:32:22.235Z,1.60
2022-10-28T12:34:54.521Z,1.95
2022-10-28T12:38:02.928Z,1.67
2022-10-28T12:40:34.912Z,1.60
2022-10-28T12:43:19.062Z,1.58
2022-10-28T12:45:48.857Z,1.58
2022-10-28T12:48:24.425Z,1.52
2022-10-28T12:50:56.717Z,1.80
2022-10-28T12:53:44.643Z,1.70
2022-10-28T12:56:22.282Z,1.83
2022-10-28T12:59:12.054Z,1.70
2022-10-28T13:01:39.895Z,1.60
2022-10-28T13:04:06.476Z,1.60
2022-10-28T13:06:41.902Z,1.77
2022-10-28T13:09:36.297Z,1.75
2022-10-28T13:12:34.911Z,1.88
2022-10-28T13:15:36.782Z,2.20
2022-10-28T13:18:53.694Z,1.65
2022-10-28T13:21:29.413Z,1.48
2022-10-28T13:24:17.211Z,1.90
2022-10-28T13:26:45.551Z,1.70
2022-10-28T13:29:27.446Z,1.70
2022-10-28T13:31:55.265Z,1.73
2022-10-28T13:34:37.384Z,1.55
2022-10-28T13:37:07.086Z,1.80
2022-10-28T13:39:36.255Z,1.30
2022-10-28T13:42:14.853Z,1.83
2022-10-28T13:44:49.484Z,1.70
2022-10-28T13:47:27.111Z,1.50
2022-10-28T13:50:05.831Z,1.60
2022-10-28T13:52:36.070Z,1.73
2022-10-28T13:55:25.839Z,1.40
2022-10-28T13:58:00.946Z,1.58
2022-10-28T14:02:59.497Z,1.73
2022-10-28T14:05:38.214Z,1.75
2022-10-28T14:08:33.202Z,1.38
2022-10-28T14:11:09.161Z,1.70
2022-10-28T14:13:39.681Z,1.67
2022-10-28T14:16:26.536Z,1.70
2022-10-28T14:19:09.662Z,1.75
2022-10-28T14:22:02.090Z,1.50
2022-10-28T14:24:34.177Z,1.60
2022-10-28T14:27:07.877Z,1.75
2022-10-28T14:30:10.454Z,1.83
2022-10-28T14:32:48.439Z,1.40
2022-10-28T14:35:17.673Z,1.70
2022-10-28T14:38:02.599Z,1.75
2022-10-28T14:40:51.940Z,1.77
2022-10-28T14:43:30.779Z,1.80
2022-10-28T14:46:10.001Z,1.75
2022-10-28T14:48:47.693Z,1.70
2022-10-28T14:51:18.474Z,1.83
2022-10-28T14:53:46.403Z,1.70
2022-10-28T14:58:52.311Z,1.58
2022-10-28T15:01:24.069Z,1.67
2022-10-28T15:03:54.659Z,1.65
2022-10-28T15:06:39.312Z,1.60
2022-10-28T15:09:17.109Z,1.77
2022-10-28T15:11:46.958Z,2.15
2022-10-28T15:14:36.641Z,1.67
2022-10-28T15:17:11.336Z,1.70
2022-10-28T15:19:38.464Z,1.80
2022-10-28T15:22:16.998Z,1.40
2022-10-28T15:24:56.951Z,1.40
2022-10-28T15:27:24.929Z,2.25
2022-10-28T15:32:20.614Z,1.58
2022-10-28T15:34:48.315Z,1.83
2022-10-28T15:37:41.204Z,3.28
2022-10-28T15:40:20.985Z,3.25
2022-10-28T15:43:00.809Z,4.45
2022-10-28T15:45:30.666Z,6.68
2022-10-28T15:47:58.382Z,3.67
2022-10-28T15:50:33.935Z,2.33
2022-10-28T15:53:09.417Z,2.15
2022-10-28T15:58:31.648Z,1.48
2022-10-28T16:00:58.965Z,1.67
2022-10-28T16:03:26.838Z,2.10
2022-10-28T16:05:59.135Z,1.90
2022-10-28T16:08:30.137Z,1.80
2022-10-28T16:11:00.519Z,1.67
2022-10-28T16:13:42.231Z,2.10
2022-10-28T16:16:15.505Z,2.05
2022-10-28T16:18:50.321Z,1.67
2022-10-28T16:21:26.010Z,1.52
2022-10-28T16:23:59.010Z,1.80
2022-10-28T16:26:26.714Z,1.42
2022-10-28T16:28:53.538Z,1.50
2022-10-28T16:31:22.888Z,1.80
2022-10-28T16:33:49.480Z,1.50
2022-10-28T16:36:15.886Z,2.05
2022-10-28T16:38:42.348Z,1.83
2022-10-28T16:41:16.310Z,1.95
2022-10-28T16:43:43.106Z,1.52
2022-10-28T16:46:11.704Z,2.00
2022-10-28T16:48:38.107Z,1.80
2022-10-28T16:51:10.866Z,1.83
2022-10-28T16:53:38.715Z,1.77
2022-10-28T16:56:09.832Z,2.25
2022-10-28T16:58:42.271Z,2.45
2022-10-28T17:01:10.279Z,2.80
2022-10-28T17:06:03.273Z,3.05
2022-10-28T17:08:56.695Z,2.70
2022-10-28T17:11:16.178Z,2.70
2022-10-28T17:13:42.561Z,2.20
2022-10-28T17:16:08.954Z,2.00
2022-10-28T17:18:35.414Z,2.28
2022-10-28T17:21:02.862Z,2.10
2022-10-28T17:23:29.595Z,2.55
2022-10-28T17:26:02.628Z,1.90
2022-10-28T17:28:29.063Z,2.05
2022-10-28T17:31:03.259Z,1.73
2022-10-28T17:33:29.981Z,1.70
2022-10-28T17:35:56.556Z,1.90
2022-10-28T17:38:23.020Z,1.48
2022-10-28T17:40:56.128Z,1.83
2022-10-28T17:43:23.217Z,1.70
2022-10-28T17:45:50.596Z,1.70
2022-10-28T17:48:17.293Z,1.90
2022-10-28T17:50:45.133Z,2.15
2022-10-28T17:53:11.708Z,1.90
2022-10-28T17:55:38.308Z,1.77
2022-10-28T17:58:04.742Z,1.90
2022-10-28T18:00:31.141Z,1.70
2022-10-28T18:02:57.662Z,2.10
2022-10-28T18:05:24.343Z,2.00
2022-10-28T18:07:54.590Z,1.90
2022-10-28T18:10:21.369Z,1.90
2022-10-28T18:12:50.878Z,1.88
2022-10-28T18:15:17.305Z,2.20
2022-10-28T18:17:43.726Z,2.15
2022-10-28T18:20:10.446Z,2.10
2022-10-28T18:22:36.861Z,2.08
2022-10-28T18:25:03.503Z,2.08
2022-10-28T18:27:29.998Z,1.92
2022-10-28T18:29:56.415Z,2.03
2022-10-28T18:32:23.944Z,2.25
2022-10-28T18:34:50.410Z,2.10
2022-10-28T18:37:16.837Z,1.92
2022-10-28T18:39:43.239Z,1.83
2022-10-28T18:42:12.300Z,2.25
2022-10-28T18:44:39.112Z,1.98
2022-10-28T18:47:06.843Z,2.40
2022-10-28T18:49:34.393Z,2.05
2022-10-28T18:52:01.017Z,2.17
2022-10-28T18:54:27.425Z,1.90
2022-10-28T18:56:57.575Z,2.33
2022-10-28T18:59:24.326Z,2.92
2022-10-28T19:01:51.005Z,2.33
2022-10-28T19:04:18.829Z,2.92
2022-10-28T19:06:46.688Z,2.22
2022-10-28T19:09:13.460Z,2.50
2022-10-28T19:11:40.009Z,2.08
2022-10-28T19:14:06.854Z,2.30
2022-10-28T19:16:34.700Z,1.98
2022-10-28T19:19:04.289Z,2.15
2022-10-28T19:21:31.140Z,2.08
2022-10-28T19:23:57.651Z,1.73
2022-10-28T19:26:24.473Z,2.20
2022-10-28T19:28:51.570Z,2.05
2022-10-28T19:31:23.363Z,2.03
2022-10-28T19:33:52.246Z,2.58
2022-10-28T19:36:26.900Z,2.10
2022-10-28T19:38:54.077Z,1.95
2022-10-28T19:41:23.272Z,2.05
2022-10-28T19:43:57.944Z,2.13
2022-10-28T19:46:26.672Z,2.13
2022-10-28T19:48:55.326Z,1.88
2022-10-28T19:51:31.278Z,1.85
2022-10-28T19:54:03.456Z,2.20
2022-10-28T19:56:32.272Z,2.13
2022-10-28T19:59:01.581Z,2.22
2022-10-28T20:01:30.369Z,2.25
2022-10-28T20:03:57.405Z,2.03
2022-10-28T20:06:26.512Z,2.05
2022-10-28T20:08:53.383Z,2.15
2022-10-28T20:11:25.872Z,1.83
2022-10-28T20:13:58.622Z,2.08
2022-10-28T20:16:25.782Z,1.92
2022-10-28T20:18:54.185Z,2.00
2022-10-28T20:21:22.134Z,2.30
2022-10-28T20:23:53.743Z,2.40
2022-10-28T20:26:25.937Z,2.17
2022-10-28T20:28:52.569Z,2.28
2022-10-28T20:31:20.982Z,2.67
2022-10-28T20:33:55.428Z,2.22
2022-10-28T20:36:28.396Z,1.90
2022-10-28T20:39:22.847Z,2.50
2022-10-28T20:41:51.080Z,2.05
2022-10-28T20:44:18.055Z,2.00
2022-10-28T20:46:46.440Z,2.10
2022-10-28T20:49:13.232Z,2.10
2022-10-28T20:51:39.819Z,2.22
2022-10-28T20:54:06.706Z,1.98
2022-10-28T20:56:38.121Z,2.08
2022-10-28T20:59:05.396Z,2.70
2022-10-28T21:01:35.099Z,2.00
2022-10-28T21:04:04.827Z,2.30
2022-10-28T21:06:32.621Z,2.33
2022-10-28T21:08:59.592Z,2.28
2022-10-28T21:11:27.852Z,2.20
2022-10-28T21:13:57.198Z,1.90
2022-10-28T21:16:24.776Z,2.10
2022-10-28T21:18:51.768Z,2.33
2022-10-28T21:21:19.809Z,2.15
2022-10-28T21:26:13.603Z,1.95
2022-10-28T21:28:42.985Z,2.20
2022-10-28T21:31:14.687Z,2.45
2022-10-28T21:33:42.259Z,2.08
2022-10-28T21:36:17.937Z,2.17
2022-10-28T21:38:44.788Z,2.33
2022-10-28T21:41:17.381Z,2.08
2022-10-28T21:43:47.759Z,2.35
2022-10-28T21:46:14.373Z,2.83
2022-10-28T21:48:40.816Z,2.50
2022-10-28T21:51:13.570Z,2.20
2022-10-28T21:53:42.717Z,2.20
2022-10-28T21:56:17.641Z,2.45
2022-10-28T21:58:45.834Z,2.45
2022-10-28T22:01:16.708Z,2.13
2022-10-28T22:03:43.206Z,2.30
2022-10-28T22:06:09.999Z,2.10
2022-10-28T22:08:36.579Z,2.47
2022-10-28T22:11:09.912Z,2.30
2022-10-28T22:13:36.870Z,2.40
2022-10-28T22:16:06.207Z,2.58
2022-10-28T22:18:34.716Z,2.22
2022-10-28T22:21:18.202Z,2.35
2022-10-28T22:23:45.419Z,2.30
2022-10-28T22:26:18.337Z,2.30
2022-10-28T22:28:44.875Z,4.85
2022-10-28T22:31:14.758Z,2.47
2022-10-28T22:33:42.396Z,2.30
2022-10-28T22:36:14.940Z,2.70
2022-10-28T22:38:41.917Z,2.05
2022-10-28T22:41:12.054Z,2.72
2022-10-28T22:43:39.373Z,2.10
2022-10-28T22:46:06.580Z,2.38
2022-10-28T22:48:33.227Z,2.50
2022-10-28T22:51:00.094Z,2.08
2022-10-28T22:53:26.911Z,2.22
2022-10-28T22:55:54.307Z,2.80
2022-10-28T22:58:21.991Z,2.20
2022-10-28T23:00:48.993Z,2.20
2022-10-28T23:03:15.542Z,2.25
2022-10-28T23:05:42.284Z,2.65
2022-10-28T23:08:14.016Z,2.38
2022-10-28T23:10:41.129Z,2.20
2022-10-28T23:13:08.642Z,2.25
2022-10-28T23:15:35.042Z,2.70
2022-10-28T23:18:01.444Z,2.30
2022-10-28T23:20:27.841Z,2.20
2022-10-28T23:22:57.426Z,2.55
2022-10-28T23:25:23.885Z,2.55
2022-10-28T23:27:50.284Z,2.70
2022-10-28T23:30:17.276Z,2.58
2022-10-28T23:32:43.676Z,2.42
2022-10-28T23:35:10.153Z,2.08
2022-10-28T23:37:36.606Z,2.60
2022-10-28T23:40:03.443Z,2.35
2022-10-28T23:42:30.153Z,2.72
2022-10-28T23:44:56.564Z,3.63
2022-10-28T23:47:23.060Z,3.53
2022-10-28T23:49:49.461Z,3.42
2022-10-28T23:52:15.870Z,3.05
2022-10-28T23:54:42.307Z,3.38
2022-10-28T23:57:08.795Z,3.53
2022-10-28T23:59:35.203Z,2.92
